Time;durP1;ratioP1;P1;durP2;ratioP2;P2;SDS_P1;SDS_P2;PMS_P1;PMS_P2;Temp;Humidity;BMP_temperature;BMP_pressure;BME280_temperature;BME280_humidity;BME280_pressure;Samples;Min_cycle;Max_cycle;Signal;HPM_P1;HPM_P2
2021/10/25 00:02:23;;;;;;;9.23;3.37;;;6.40;99.90;;;;;;5057330;28;20535;-79
2021/10/25 00:04:49;;;;;;;7.47;3.63;;;6.40;99.90;;;;;;5040549;28;20084;-80
2021/10/25 00:07:15;;;;;;;6.20;3.40;;;6.30;99.90;;;;;;5059058;28;20041;-80
2021/10/25 00:09:41;;;;;;;8.17;3.93;;;6.30;99.90;;;;;;5055495;28;20110;-79
2021/10/25 00:12:06;;;;;;;7.63;3.63;;;6.30;99.90;;;;;;5059744;28;20045;-79
2021/10/25 00:14:32;;;;;;;6.53;3.70;;;6.30;99.90;;;;;;5041052;28;20090;-81
2021/10/25 00:16:58;;;;;;;6.07;3.30;;;6.30;99.90;;;;;;5040649;28;20025;-80
2021/10/25 00:19:23;;;;;;;8.57;3.50;;;6.20;99.90;;;;;;5075572;28;20111;-80
2021/10/25 00:21:49;;;;;;;7.10;3.57;;;6.20;99.90;;;;;;5059788;28;20059;-79
2021/10/25 00:24:16;;;;;;;6.00;3.13;;;6.20;99.90;;;;;;5060279;28;20039;-80
2021/10/25 00:26:42;;;;;;;7.23;3.47;;;6.20;99.90;;;;;;5056783;28;20060;-80
2021/10/25 00:29:07;;;;;;;6.83;3.60;;;6.20;99.90;;;;;;5056505;28;20115;-79
2021/10/25 00:31:33;;;;;;;5.97;3.77;;;6.20;99.90;;;;;;5056767;28;20029;-79
2021/10/25 00:34:00;;;;;;;6.20;3.37;;;6.30;99.90;;;;;;5058010;28;20154;-80
2021/10/25 00:36:25;;;;;;;6.93;3.97;;;6.30;99.90;;;;;;5077387;28;20477;-80
2021/10/25 00:38:51;;;;;;;6.00;3.37;;;6.30;99.90;;;;;;5078115;28;20027;-79
2021/10/25 00:41:17;;;;;;;8.63;4.07;;;6.30;99.90;;;;;;5075920;28;20028;-80
2021/10/25 00:43:43;;;;;;;7.43;3.70;;;6.20;99.90;;;;;;5076899;28;20029;-79
2021/10/25 00:46:10;;;;;;;6.97;3.33;;;6.20;99.90;;;;;;5077479;28;20025;-79
2021/10/25 00:48:36;;;;;;;5.70;3.30;;;6.20;99.90;;;;;;5077024;28;20056;-80
2021/10/25 00:51:06;;;;;;;6.33;3.20;;;6.20;99.90;;;;;;5057779;28;20040;-80
2021/10/25 00:53:35;;;;;;;5.10;3.03;;;6.10;99.90;;;;;;5076317;28;20527;-80
2021/10/25 00:56:04;;;;;;;6.67;3.70;;;6.10;99.90;;;;;;5068915;23;20045;-84
2021/10/25 00:58:30;;;;;;;8.87;4.27;;;6.00;99.90;;;;;;5057355;28;20501;-84
2021/10/25 01:00:56;;;;;;;8.33;3.73;;;5.90;99.90;;;;;;5070510;28;20052;-84
2021/10/25 01:03:21;;;;;;;7.73;3.70;;;5.90;99.90;;;;;;5075785;28;20396;-84
2021/10/25 01:05:47;;;;;;;7.30;3.40;;;5.80;99.90;;;;;;5063120;28;20025;-84
2021/10/25 01:08:13;;;;;;;6.33;3.77;;;5.80;99.90;;;;;;5053079;28;20056;-84
2021/10/25 01:10:41;;;;;;;7.47;3.70;;;5.80;99.90;;;;;;5056953;28;20025;-83
2021/10/25 01:13:07;;;;;;;7.53;3.50;;;5.80;99.90;;;;;;5073331;28;20048;-84
2021/10/25 01:15:33;;;;;;;6.77;3.33;;;5.80;99.90;;;;;;5073068;28;20731;-83
2021/10/25 01:18:00;;;;;;;6.53;3.00;;;5.80;99.90;;;;;;5057153;28;20063;-84
2021/10/25 01:20:27;;;;;;;7.80;3.70;;;5.80;99.90;;;;;;5055184;28;20025;-84
2021/10/25 01:22:54;;;;;;;7.70;4.03;;;5.80;99.90;;;;;;5074842;28;20056;-84
2021/10/25 01:25:21;;;;;;;6.70;3.63;;;5.80;99.90;;;;;;5064669;28;20033;-84
2021/10/25 01:27:47;;;;;;;9.43;3.73;;;5.80;99.90;;;;;;5064363;28;20506;-83
2021/10/25 01:30:13;;;;;;;6.50;3.70;;;5.80;99.90;;;;;;5055170;28;20064;-84
2021/10/25 01:32:41;;;;;;;6.37;3.87;;;5.80;99.90;;;;;;5053162;28;20029;-84
2021/10/25 01:35:07;;;;;;;8.17;3.67;;;5.80;99.90;;;;;;5056119;28;20423;-84
2021/10/25 01:37:32;;;;;;;6.93;3.37;;;5.80;99.90;;;;;;5072783;28;20546;-83
2021/10/25 01:39:58;;;;;;;8.00;3.70;;;5.80;99.90;;;;;;5055779;28;20136;-84
2021/10/25 01:42:23;;;;;;;6.50;3.33;;;5.80;99.90;;;;;;5073206;28;20521;-83
2021/10/25 01:44:49;;;;;;;7.20;3.87;;;5.80;99.90;;;;;;5057441;28;20103;-83
2021/10/25 01:47:15;;;;;;;7.97;3.80;;;5.70;99.90;;;;;;5057272;28;20482;-83
2021/10/25 01:49:41;;;;;;;5.77;3.33;;;5.70;99.90;;;;;;5055541;28;20031;-84
2021/10/25 01:52:07;;;;;;;6.43;3.33;;;5.70;99.90;;;;;;5057917;28;20028;-84
2021/10/25 01:54:33;;;;;;;7.97;3.77;;;5.70;99.90;;;;;;5056696;28;20775;-84
2021/10/25 01:56:59;;;;;;;6.70;3.33;;;5.70;99.90;;;;;;5057337;28;20404;-84
2021/10/25 01:59:25;;;;;;;6.83;3.53;;;5.60;99.90;;;;;;5056405;28;20025;-84
2021/10/25 02:01:50;;;;;;;6.20;3.13;;;5.60;99.90;;;;;;5057783;28;20032;-84
2021/10/25 02:04:16;;;;;;;7.50;3.60;;;5.60;99.90;;;;;;5055427;28;20029;-84
2021/10/25 02:06:42;;;;;;;5.87;3.17;;;5.60;99.90;;;;;;5057462;28;20039;-84
2021/10/25 02:09:07;;;;;;;6.63;3.80;;;5.60;99.90;;;;;;5057565;28;20052;-84
2021/10/25 02:11:33;;;;;;;9.07;3.33;;;5.60;99.90;;;;;;5066750;28;20086;-83
2021/10/25 02:13:59;;;;;;;7.40;3.53;;;5.50;99.90;;;;;;5076012;28;20048;-84
2021/10/25 02:16:24;;;;;;;7.30;3.40;;;5.50;99.90;;;;;;5065507;28;20052;-83
2021/10/25 02:18:52;;;;;;;5.60;3.20;;;5.50;99.90;;;;;;5065824;28;20025;-84
2021/10/25 02:21:18;;;;;;;7.67;3.73;;;5.40;99.90;;;;;;5072610;28;20032;-84
2021/10/25 02:23:43;;;;;;;5.57;3.37;;;5.40;99.90;;;;;;5067753;28;20029;-84
2021/10/25 02:26:09;;;;;;;8.23;3.53;;;5.40;99.90;;;;;;5056893;28;20039;-83
2021/10/25 02:28:35;;;;;;;8.23;4.20;;;5.40;99.90;;;;;;5057392;28;20044;-83
2021/10/25 02:31:01;;;;;;;8.47;4.37;;;5.30;99.90;;;;;;5056119;28;20041;-84
2021/10/25 02:33:26;;;;;;;10.27;4.20;;;5.20;99.90;;;;;;5053556;28;20455;-84
2021/10/25 02:35:52;;;;;;;10.77;4.60;;;5.20;99.90;;;;;;5060872;28;20040;-84
2021/10/25 02:38:18;;;;;;;8.47;4.60;;;5.20;99.90;;;;;;5060366;28;20029;-83
2021/10/25 02:40:44;;;;;;;7.00;3.70;;;5.10;99.90;;;;;;5065366;28;20033;-83
2021/10/25 02:43:10;;;;;;;7.43;4.03;;;5.00;99.90;;;;;;5058517;28;20032;-83
2021/10/25 02:45:36;;;;;;;9.23;4.27;;;5.00;99.90;;;;;;5059035;28;20045;-83
2021/10/25 02:48:02;;;;;;;6.57;3.87;;;4.90;99.90;;;;;;5058033;28;20021;-83
2021/10/25 02:50:28;;;;;;;6.50;3.50;;;5.00;99.90;;;;;;5062464;28;20084;-81
2021/10/25 02:52:54;;;;;;;7.97;4.33;;;5.00;99.90;;;;;;5065361;28;20516;-81
2021/10/25 02:55:21;;;;;;;10.30;4.17;;;5.00;99.90;;;;;;5058022;28;20075;-82
2021/10/25 02:57:46;;;;;;;7.67;3.67;;;4.90;99.90;;;;;;5059478;28;20025;-82
2021/10/25 03:00:15;;;;;;;7.93;4.07;;;5.00;99.90;;;;;;5057811;28;20060;-83
2021/10/25 03:02:42;;;;;;;7.70;3.30;;;5.00;99.90;;;;;;5058133;28;20039;-82
2021/10/25 03:05:09;;;;;;;6.23;3.37;;;4.90;99.90;;;;;;5060149;28;20094;-83
2021/10/25 03:07:34;;;;;;;8.07;3.63;;;4.90;99.90;;;;;;5075845;28;20455;-81
2021/10/25 03:10:00;;;;;;;6.57;3.33;;;4.90;99.90;;;;;;5058440;28;20029;-83
2021/10/25 03:12:26;;;;;;;7.37;3.37;;;4.90;99.90;;;;;;5058477;28;20021;-83
2021/10/25 03:14:53;;;;;;;7.23;3.80;;;4.90;99.90;;;;;;5061428;28;20021;-83
2021/10/25 03:17:19;;;;;;;8.23;3.47;;;4.90;99.90;;;;;;5059165;28;20064;-83
2021/10/25 03:19:46;;;;;;;9.43;3.57;;;4.90;99.90;;;;;;5059735;28;20044;-83
2021/10/25 03:22:13;;;;;;;5.93;3.03;;;4.90;99.90;;;;;;5067367;28;20033;-83
2021/10/25 03:24:39;;;;;;;6.13;2.90;;;4.90;99.90;;;;;;5079427;28;20469;-83
2021/10/25 03:27:04;;;;;;;7.17;3.20;;;4.90;99.90;;;;;;5077943;28;20037;-83
2021/10/25 03:29:30;;;;;;;5.70;3.10;;;4.80;99.90;;;;;;5078844;28;20032;-83
2021/10/25 03:31:56;;;;;;;11.10;3.47;;;4.80;99.90;;;;;;5070462;28;20100;-83
2021/10/25 03:34:22;;;;;;;6.73;3.07;;;4.80;99.90;;;;;;5073246;28;20040;-82
2021/10/25 03:36:49;;;;;;;7.07;3.57;;;4.80;99.90;;;;;;5070078;28;20111;-83
2021/10/25 03:39:19;;;;;;;6.20;3.10;;;4.70;99.90;;;;;;5078610;28;20028;-83
2021/10/25 03:41:47;;;;;;;5.00;2.60;;;4.70;99.90;;;;;;5076776;28;20090;-84
2021/10/25 03:44:26;;;;;;;6.70;2.93;;;4.70;99.90;;;;;;5077557;28;20020;-84
2021/10/25 03:47:29;;;;;;;5.30;2.70;;;4.70;99.90;;;;;;5056167;28;20039;-83
2021/10/25 03:49:54;;;;;;;6.03;3.27;;;4.60;99.90;;;;;;5054013;28;20043;-83
2021/10/25 04:30:34;;;;;;;6.30;3.37;;;4.30;99.90;;;;;;5060893;28;20025;-83
2021/10/25 04:33:00;;;;;;;7.60;3.23;;;4.30;99.90;;;;;;5073984;28;20024;-84
2021/10/25 04:35:26;;;;;;;5.90;3.00;;;4.30;99.90;;;;;;5073749;28;20382;-83
2021/10/25 04:37:52;;;;;;;6.70;3.30;;;4.20;99.90;;;;;;5076164;28;20023;-83
2021/10/25 04:40:17;;;;;;;5.83;3.03;;;4.30;99.90;;;;;;5073413;28;20024;-83
2021/10/25 04:42:43;;;;;;;5.60;2.80;;;4.30;99.90;;;;;;5067660;28;20413;-83
2021/10/25 04:45:09;;;;;;;7.03;3.23;;;4.30;99.90;;;;;;5074541;28;20027;-82
2021/10/25 04:47:35;;;;;;;5.97;3.13;;;4.40;99.90;;;;;;5072942;28;20021;-84
2021/10/25 04:50:03;;;;;;;7.00;2.87;;;4.30;99.90;;;;;;5071055;28;20031;-83
2021/10/25 04:52:28;;;;;;;6.97;3.63;;;4.30;99.90;;;;;;5070829;28;20032;-83
2021/10/25 04:54:54;;;;;;;6.17;3.27;;;4.30;99.90;;;;;;5071914;28;20044;-81
2021/10/25 04:57:20;;;;;;;6.40;2.90;;;4.30;99.90;;;;;;5052254;28;20138;-84
2021/10/25 04:59:46;;;;;;;6.47;3.33;;;4.30;99.90;;;;;;5064999;28;20043;-80
2021/10/25 05:02:12;;;;;;;6.03;3.37;;;4.30;99.90;;;;;;5082554;28;20028;-83
2021/10/25 05:04:37;;;;;;;5.43;3.30;;;4.30;99.90;;;;;;5062338;28;20051;-85
2021/10/25 05:07:04;;;;;;;5.83;3.40;;;4.30;99.90;;;;;;5070579;28;20029;-81
2021/10/25 05:09:30;;;;;;;5.80;3.13;;;4.30;99.90;;;;;;5067690;28;20063;-82
2021/10/25 05:11:56;;;;;;;6.00;3.30;;;4.30;99.90;;;;;;5072540;28;20016;-84
2021/10/25 05:14:22;;;;;;;6.30;3.40;;;4.40;99.90;;;;;;5073098;28;20031;-82
2021/10/25 05:16:47;;;;;;;6.60;3.83;;;4.40;99.90;;;;;;5068243;28;20420;-83
2021/10/25 05:19:16;;;;;;;5.70;3.23;;;4.30;99.90;;;;;;5074415;28;20024;-86
2021/10/25 05:21:41;;;;;;;5.83;3.13;;;4.30;99.90;;;;;;5067983;28;20024;-85
2021/10/25 05:24:07;;;;;;;6.93;3.10;;;4.30;99.90;;;;;;5073454;28;20051;-83
2021/10/25 05:26:33;;;;;;;6.03;3.13;;;4.20;99.90;;;;;;5074070;28;20496;-80
2021/10/25 05:28:59;;;;;;;5.00;2.80;;;4.20;99.90;;;;;;5072923;28;20032;-84
2021/10/25 05:31:25;;;;;;;6.13;3.10;;;4.20;99.90;;;;;;5073065;28;20099;-83
2021/10/25 05:33:51;;;;;;;6.03;3.20;;;4.10;99.90;;;;;;5063961;28;20024;-85
2021/10/25 05:36:17;;;;;;;6.03;2.80;;;4.20;99.90;;;;;;5072339;28;20017;-84
2021/10/25 05:38:43;;;;;;;7.13;3.20;;;4.10;99.90;;;;;;5074898;28;20029;-82
2021/10/25 05:41:13;;;;;;;5.97;3.00;;;4.10;99.90;;;;;;5073184;28;20157;-84
2021/10/25 05:43:40;;;;;;;9.40;3.60;;;4.10;99.90;;;;;;5054684;28;20118;-83
2021/10/25 05:46:06;;;;;;;6.17;3.13;;;4.10;99.90;;;;;;5054667;28;20040;-83
2021/10/25 05:48:32;;;;;;;5.10;2.80;;;4.10;99.90;;;;;;5066925;28;20060;-82
2021/10/25 05:51:01;;;;;;;5.53;3.00;;;4.20;99.90;;;;;;5068776;28;20060;-84
2021/10/25 05:53:27;;;;;;;6.57;3.37;;;4.20;99.90;;;;;;5069899;28;20028;-83
2021/10/25 05:55:53;;;;;;;7.50;3.40;;;4.20;99.90;;;;;;5071762;28;20032;-83
2021/10/25 05:58:21;;;;;;;5.33;3.20;;;4.10;99.90;;;;;;5069322;28;20063;-84
2021/10/25 06:00:54;;;;;;;6.57;3.27;;;4.20;99.90;;;;;;5065235;28;20036;-81
2021/10/25 06:03:23;;;;;;;5.47;2.67;;;4.10;99.90;;;;;;5071618;28;20457;-84
2021/10/25 06:05:49;;;;;;;9.73;3.37;;;4.20;99.90;;;;;;5066195;28;20666;-83
2021/10/25 06:08:15;;;;;;;5.73;3.17;;;4.30;99.90;;;;;;5067980;28;20059;-81
2021/10/25 06:10:43;;;;;;;7.83;3.60;;;4.30;99.90;;;;;;5070521;28;20067;-83
2021/10/25 06:13:11;;;;;;;8.60;4.30;;;4.30;99.90;;;;;;5074298;28;20039;-83
2021/10/25 06:15:39;;;;;;;6.53;3.20;;;4.30;99.90;;;;;;5067267;28;20024;-82
2021/10/25 06:18:08;;;;;;;5.30;2.93;;;4.30;99.90;;;;;;5074446;28;20044;-83
2021/10/25 06:20:35;;;;;;;5.97;3.00;;;4.30;99.90;;;;;;5071662;28;20025;-84
2021/10/25 06:23:11;;;;;;;6.33;3.57;;;4.20;99.90;;;;;;5070820;28;20053;-85
2021/10/25 06:25:38;;;;;;;7.07;3.87;;;4.20;99.90;;;;;;5075543;28;20025;-85
2021/10/25 06:28:04;;;;;;;5.17;3.10;;;4.10;99.90;;;;;;5078649;28;20036;-85
2021/10/25 06:30:30;;;;;;;8.90;3.47;;;4.10;99.90;;;;;;5072875;28;20032;-86
2021/10/25 06:32:56;;;;;;;7.00;3.83;;;4.10;99.90;;;;;;5076258;28;20031;-85
2021/10/25 06:35:26;;;;;;;7.70;3.37;;;4.10;99.90;;;;;;5075992;28;20457;-85
2021/10/25 06:40:23;;;;;;;6.27;3.30;;;4.00;99.90;;;;;;5068126;28;20028;-85
2021/10/25 06:42:49;;;;;;;5.67;3.07;;;4.10;99.90;;;;;;5079906;28;20040;-81
2021/10/25 06:45:22;;;;;;;6.83;3.50;;;4.10;99.90;;;;;;5076948;28;20033;-83
2021/10/25 06:47:54;;;;;;;6.57;3.23;;;4.10;99.90;;;;;;5067150;28;20033;-81
2021/10/25 06:50:23;;;;;;;4.07;2.53;;;4.10;99.90;;;;;;5074286;28;20036;-81
2021/10/25 06:52:50;;;;;;;6.43;2.97;;;4.20;99.90;;;;;;5067686;28;20106;-83
2021/10/25 06:55:16;;;;;;;6.20;3.30;;;4.20;99.90;;;;;;5068745;28;20032;-84
2021/10/25 06:57:42;;;;;;;7.87;3.60;;;4.20;99.90;;;;;;5071317;28;20017;-84
2021/10/25 07:00:08;;;;;;;7.47;3.27;;;4.30;99.90;;;;;;5075564;28;20499;-82
2021/10/25 07:02:35;;;;;;;5.60;3.13;;;4.30;99.90;;;;;;5076288;28;20070;-83
2021/10/25 07:05:01;;;;;;;6.53;3.83;;;4.30;99.90;;;;;;5072287;28;20126;-82
2021/10/25 07:07:28;;;;;;;6.83;3.50;;;4.40;99.90;;;;;;5075758;28;20404;-82
2021/10/25 07:09:56;;;;;;;8.97;3.50;;;4.30;99.90;;;;;;5083618;28;20062;-82
2021/10/25 07:12:23;;;;;;;8.40;3.43;;;4.30;99.90;;;;;;5081539;28;20021;-82
2021/10/25 07:14:53;;;;;;;6.50;3.47;;;4.30;99.90;;;;;;5078134;28;20020;-82
2021/10/25 07:28:07;;;;;;;10.25;3.90;;;4.70;99.90;;;;;;5073214;28;20033;-82
2021/10/25 08:03:54;;;;;;;6.43;3.30;;;6.20;99.90;;;;;;5074399;28;20519;-82
2021/10/25 08:11:32;;;;;;;7.77;3.50;;;6.70;99.90;;;;;;5052129;28;20032;-82
2021/10/25 08:14:03;;;;;;;6.80;3.63;;;6.80;99.90;;;;;;5052796;28;20108;-82
2021/10/25 08:16:47;;;;;;;6.63;3.60;;;6.80;99.90;;;;;;5056819;28;20031;-82
2021/10/25 08:19:23;;;;;;;6.17;3.50;;;6.80;99.90;;;;;;5065124;28;20076;-81
2021/10/25 08:22:11;;;;;;;6.60;3.00;;;6.90;99.90;;;;;;5076025;28;20024;-82
2021/10/25 08:24:40;;;;;;;6.27;3.30;;;6.80;99.90;;;;;;5072133;28;20516;-82
2021/10/25 08:27:07;;;;;;;5.93;3.37;;;6.90;99.90;;;;;;5074011;28;20035;-82
2021/10/25 08:29:34;;;;;;;6.93;3.80;;;7.00;99.90;;;;;;5072767;28;20044;-80
2021/10/25 08:40:17;;;;;;;7.27;3.73;;;7.20;99.90;;;;;;5055865;28;20060;-84
2021/10/25 08:42:43;;;;;;;6.27;3.60;;;7.30;99.90;;;;;;5052603;28;20481;-81
2021/10/25 08:45:16;;;;;;;7.67;3.50;;;7.30;99.90;;;;;;5052735;28;20028;-82
2021/10/25 08:47:46;;;;;;;6.27;3.30;;;7.30;99.90;;;;;;5054907;28;20385;-81
2021/10/25 08:50:21;;;;;;;6.80;3.47;;;7.50;99.90;;;;;;5054076;28;20088;-82
2021/10/25 08:52:48;;;;;;;8.37;3.57;;;7.50;99.90;;;;;;5073578;28;20416;-81
2021/10/25 08:55:19;;;;;;;7.87;3.67;;;7.50;99.90;;;;;;5057513;28;20570;-83
2021/10/25 08:57:49;;;;;;;7.90;3.47;;;7.50;99.90;;;;;;5072164;28;20025;-82
2021/10/25 09:00:20;;;;;;;6.17;2.97;;;7.50;99.90;;;;;;5079052;28;20055;-81
2021/10/25 09:02:58;;;;;;;9.07;2.93;;;7.40;99.90;;;;;;5079010;28;20039;-83
2021/10/25 09:05:24;;;;;;;7.53;3.47;;;7.30;99.90;;;;;;5061146;28;20268;-82
2021/10/25 09:07:53;;;;;;;7.83;2.90;;;7.30;99.90;;;;;;5057853;28;20094;-83
2021/10/25 09:10:26;;;;;;;5.47;3.30;;;7.30;99.90;;;;;;5072077;28;20493;-83
2021/10/25 09:12:59;;;;;;;4.97;2.63;;;7.30;99.90;;;;;;5081724;28;20016;-83
2021/10/25 09:15:28;;;;;;;4.87;2.70;;;7.40;99.90;;;;;;5073115;28;20029;-82
2021/10/25 09:17:58;;;;;;;7.43;3.60;;;7.40;99.90;;;;;;5078620;28;20023;-83
2021/10/25 09:20:23;;;;;;;7.93;4.40;;;7.40;99.90;;;;;;5070941;28;20028;-82
2021/10/25 09:23:13;;;;;;;7.53;3.13;;;7.50;99.90;;;;;;5068863;28;20037;-83
2021/10/25 09:26:19;;;;;;;5.47;2.80;;;7.60;99.90;;;;;;5068191;28;20020;-84
2021/10/25 09:29:22;;;;;;;5.40;2.90;;;7.70;99.90;;;;;;5069751;28;20025;-84
2021/10/25 09:32:34;;;;;;;6.82;3.13;;;7.70;99.90;;;;;;5074481;28;20025;-83
2021/10/25 09:35:20;;;;;;;6.75;2.95;;;7.80;99.90;;;;;;5064329;28;20029;-83
2021/10/25 09:50:03;;;;;;;6.40;3.00;;;8.80;99.90;;;;;;5069395;28;20094;-81
2021/10/25 09:52:41;;;;;;;4.20;2.60;;;9.00;99.90;;;;;;5072236;28;20017;-82
2021/10/25 09:55:17;;;;;;;4.40;2.42;;;9.00;99.90;;;;;;5072890;28;20571;-81
2021/10/25 09:57:58;;;;;;;4.70;2.70;;;9.20;99.90;;;;;;5070112;28;20556;-81
2021/10/25 10:00:26;;;;;;;6.80;2.35;;;9.20;99.90;;;;;;5072598;28;20029;-83
2021/10/25 10:02:51;;;;;;;7.28;2.75;;;9.30;99.90;;;;;;5070983;28;20031;-82
2021/10/25 10:05:18;;;;;;;6.65;2.38;;;9.40;99.90;;;;;;5074314;28;20028;-82
2021/10/25 10:07:44;;;;;;;4.35;2.20;;;9.50;99.90;;;;;;5072242;28;20497;-83
2021/10/25 10:10:13;;;;;;;3.67;2.22;;;9.70;99.90;;;;;;5071143;28;20419;-81
2021/10/25 10:12:43;;;;;;;5.03;2.40;;;9.80;99.90;;;;;;5073510;28;20093;-81
2021/10/25 10:15:10;;;;;;;8.45;3.03;;;9.90;99.90;;;;;;5072644;28;20016;-83
2021/10/25 10:17:51;;;;;;;3.65;1.90;;;10.20;99.90;;;;;;5073163;28;20428;-83
2021/10/25 10:20:32;;;;;;;4.20;2.13;;;10.40;99.90;;;;;;5071855;28;20032;-82
2021/10/25 10:23:02;;;;;;;3.95;1.75;;;10.60;99.90;;;;;;5061543;28;20037;-82
2021/10/25 10:25:39;;;;;;;3.40;2.05;;;10.80;99.90;;;;;;5073873;28;20021;-82
2021/10/25 10:28:11;;;;;;;3.70;1.98;;;10.80;99.90;;;;;;5070685;28;20052;-82
2021/10/25 10:30:53;;;;;;;3.90;1.85;;;11.00;99.90;;;;;;5069970;28;20044;-83
2021/10/25 10:33:31;;;;;;;3.80;1.80;;;11.10;99.90;;;;;;5072122;28;20024;-83
2021/10/25 10:36:21;;;;;;;3.65;1.67;;;11.20;99.90;;;;;;5072363;28;20106;-82
2021/10/25 10:38:58;;;;;;;4.13;1.98;;;11.20;99.90;;;;;;5072007;28;20024;-83
2021/10/25 10:41:36;;;;;;;3.38;1.90;;;11.20;99.90;;;;;;5070340;28;20060;-83
2021/10/25 10:44:24;;;;;;;4.32;2.33;;;11.30;99.90;;;;;;5071220;28;20125;-82
2021/10/25 10:46:57;;;;;;;4.28;2.00;;;11.40;99.90;;;;;;5071665;28;20025;-82
2021/10/25 10:49:33;;;;;;;4.35;2.10;;;11.40;99.90;;;;;;5072360;28;20021;-83
2021/10/25 10:55:33;;;;;;;2.92;1.40;;;11.70;99.90;;;;;;5021173;28;20044;-82
2021/10/25 11:00:48;;;;;;;3.92;2.20;;;11.60;99.90;;;;;;5069512;28;20032;-83
2021/10/25 11:03:28;;;;;;;5.22;2.13;;;11.60;99.90;;;;;;5071623;28;20056;-82
2021/10/25 11:06:09;;;;;;;4.05;2.30;;;11.60;99.90;;;;;;5064133;28;20021;-82
2021/10/25 11:08:41;;;;;;;4.38;2.17;;;11.60;99.90;;;;;;5058823;28;20079;-82
2021/10/25 11:11:09;;;;;;;3.80;2.00;;;11.70;99.90;;;;;;5069354;28;20024;-82
2021/10/25 11:13:45;;;;;;;3.47;1.90;;;11.80;99.90;;;;;;5072076;28;20035;-82
2021/10/25 11:16:17;;;;;;;4.82;2.40;;;11.90;99.90;;;;;;5066625;28;20083;-82
2021/10/25 11:18:45;;;;;;;4.40;2.20;;;12.00;99.90;;;;;;5059752;28;20059;-83
2021/10/25 11:21:24;;;;;;;4.15;1.88;;;12.10;99.90;;;;;;5069441;28;20020;-82
2021/10/25 11:23:56;;;;;;;3.72;1.88;;;12.10;99.90;;;;;;5069070;28;20028;-82
2021/10/25 11:26:36;;;;;;;3.25;1.92;;;12.00;99.90;;;;;;5072224;28;20020;-82
2021/10/25 11:29:14;;;;;;;3.38;1.83;;;12.10;99.90;;;;;;5067975;28;20032;-82
2021/10/25 11:31:49;;;;;;;3.72;1.55;;;12.10;99.90;;;;;;5070522;28;20115;-82
2021/10/25 11:34:20;;;;;;;3.08;1.52;;;12.20;99.90;;;;;;5061604;28;20017;-82
2021/10/25 11:37:21;;;;;;;4.30;1.30;;;12.20;99.90;;;;;;5069444;28;20433;-82
2021/10/25 11:42:29;;;;;;;2.88;1.40;;;12.40;99.90;;;;;;5066985;28;20029;-83
2021/10/25 11:45:00;;;;;;;3.83;1.50;;;12.40;99.90;;;;;;5071715;28;20044;-83
2021/10/25 11:47:32;;;;;;;2.67;1.38;;;12.50;99.90;;;;;;5064561;28;20571;-84
2021/10/25 11:50:11;;;;;;;3.58;1.10;;;12.70;99.90;;;;;;5068524;28;20439;-84
2021/10/25 11:52:39;;;;;;;2.90;1.20;;;12.80;99.90;;;;;;5076229;28;20027;-84
2021/10/25 11:55:06;;;;;;;4.43;1.23;;;12.90;99.90;;;;;;5056363;28;20219;-84
2021/10/25 11:57:33;;;;;;;2.20;1.08;;;13.00;99.90;;;;;;5072539;28;20016;-84
2021/10/25 12:00:05;;;;;;;2.60;1.23;;;13.20;99.90;;;;;;5061923;28;20028;-85
2021/10/25 12:02:33;;;;;;;;;;;13.20;99.90;;;;;;5059703;28;20025;-84
2021/10/25 12:04:58;;;;;;;3.25;1.42;;;13.30;99.90;;;;;;5051647;28;19909;-85
2021/10/25 12:07:24;;;;;;;2.45;1.05;;;13.40;99.90;;;;;;5061930;28;20354;-85
2021/10/25 12:10:04;;;;;;;3.53;1.25;;;13.50;99.90;;;;;;5052381;28;20048;-85
2021/10/25 12:12:30;;;;;;;2.25;0.98;;;13.50;99.90;;;;;;5052980;28;20424;-84
2021/10/25 12:15:02;;;;;;;1.83;0.95;;;13.60;99.90;;;;;;5062407;28;20029;-84
2021/10/25 12:17:37;;;;;;;2.80;0.93;;;13.70;99.90;;;;;;5072067;28;20024;-84
2021/10/25 12:20:11;;;;;;;3.63;1.20;;;13.80;99.90;;;;;;5068609;28;20430;-84
2021/10/25 12:22:42;;;;;;;2.35;0.93;;;13.80;99.90;;;;;;5074693;28;20036;-84
2021/10/25 12:25:09;;;;;;;2.90;1.10;;;14.00;99.90;;;;;;5074130;28;20021;-84
2021/10/25 12:27:39;;;;;;;2.03;0.90;;;14.10;99.90;;;;;;5071547;28;20024;-84
2021/10/25 12:30:09;;;;;;;1.73;0.73;;;14.20;99.90;;;;;;5071362;28;20028;-85
2021/10/25 12:32:39;;;;;;;1.92;0.80;;;14.20;99.90;;;;;;5071675;28;20032;-84
2021/10/25 12:35:07;;;;;;;3.05;1.00;;;14.30;99.90;;;;;;5066746;28;20366;-84
2021/10/25 12:37:34;;;;;;;2.72;0.80;;;14.10;99.90;;;;;;5068962;28;20059;-84
2021/10/25 12:40:01;;;;;;;2.85;1.40;;;14.00;99.90;;;;;;5065146;28;20079;-85
2021/10/25 12:42:40;;;;;;;2.97;1.10;;;14.00;99.90;;;;;;5074726;28;20036;-85
2021/10/25 12:45:21;;;;;;;2.67;0.90;;;14.00;99.90;;;;;;5072239;28;20031;-85
2021/10/25 12:47:52;;;;;;;1.77;0.80;;;14.00;99.90;;;;;;5064485;28;20119;-85
2021/10/25 12:50:21;;;;;;;5.13;1.02;;;14.20;99.90;;;;;;5067970;28;20040;-85
2021/10/25 12:52:54;;;;;;;3.80;1.10;;;14.30;99.90;;;;;;5067705;28;20670;-85
2021/10/25 12:55:20;;;;;;;3.78;1.20;;;14.40;99.90;;;;;;5068920;28;20112;-85
2021/10/25 12:57:45;;;;;;;3.17;1.25;;;14.50;99.90;;;;;;5069354;28;20480;-85
2021/10/25 13:00:16;;;;;;;2.67;1.27;;;14.60;99.90;;;;;;5070452;28;20027;-85
2021/10/25 13:02:44;;;;;;;2.00;1.00;;;14.90;99.90;;;;;;5065245;28;20021;-85
2021/10/25 13:05:16;;;;;;;3.60;1.10;;;15.20;99.90;;;;;;5064469;28;20043;-85
2021/10/25 13:07:47;;;;;;;2.75;1.00;;;15.50;99.90;;;;;;5068985;28;20456;-86
2021/10/25 13:10:14;;;;;;;2.53;1.03;;;15.80;99.90;;;;;;5063387;28;20029;-86
2021/10/25 13:12:39;;;;;;;2.30;0.90;;;16.00;99.90;;;;;;5124847;22;20371;-84
2021/10/25 13:15:05;;;;;;;1.52;0.68;;;16.20;99.90;;;;;;5043709;28;20721;-84
2021/10/25 13:17:31;;;;;;;1.17;0.50;;;16.30;99.90;;;;;;5044478;28;20039;-84
2021/10/25 13:19:57;;;;;;;1.30;0.57;;;16.40;99.90;;;;;;5061400;28;20037;-84
2021/10/25 13:22:22;;;;;;;1.70;0.52;;;16.50;99.40;;;;;;5070356;28;20023;-84
2021/10/25 13:24:48;;;;;;;1.35;0.60;;;16.60;98.30;;;;;;5052076;28;20031;-84
2021/10/25 13:27:14;;;;;;;2.20;0.47;;;16.70;96.90;;;;;;5069831;28;20024;-85
2021/10/25 13:29:39;;;;;;;1.90;0.65;;;16.70;95.70;;;;;;5050856;28;20021;-85
2021/10/25 13:32:05;;;;;;;2.88;0.63;;;16.80;96.10;;;;;;5048632;28;20417;-85
2021/10/25 13:34:31;;;;;;;2.22;0.70;;;16.90;95.30;;;;;;5051652;28;20025;-85
2021/10/25 13:36:57;;;;;;;2.20;0.60;;;17.00;94.80;;;;;;5043102;28;20078;-85
2021/10/25 13:39:22;;;;;;;1.33;0.43;;;17.10;94.50;;;;;;5051583;28;20021;-85
2021/10/25 13:41:48;;;;;;;1.42;0.60;;;17.10;94.10;;;;;;5047022;28;20726;-85
2021/10/25 13:44:14;;;;;;;3.65;1.05;;;17.20;95.10;;;;;;5067905;28;20034;-85
2021/10/25 13:46:40;;;;;;;4.00;0.60;;;17.30;94.00;;;;;;5048313;28;20028;-85
2021/10/25 13:49:07;;;;;;;1.63;0.57;;;17.40;92.70;;;;;;5030565;28;20477;-85
2021/10/25 13:51:33;;;;;;;1.73;0.60;;;17.50;92.80;;;;;;5030186;28;20032;-85
2021/10/25 13:53:59;;;;;;;2.88;1.02;;;17.50;92.30;;;;;;5030478;28;20024;-85
2021/10/25 13:56:25;;;;;;;1.20;0.30;;;17.60;92.70;;;;;;5050585;28;20091;-84
2021/10/25 13:58:50;;;;;;;1.73;0.52;;;17.50;92.50;;;;;;5035429;28;20151;-84
2021/10/25 14:01:16;;;;;;;1.60;0.52;;;17.70;92.40;;;;;;5050513;28;20033;-84
2021/10/25 14:03:43;;;;;;;1.15;0.40;;;17.80;91.90;;;;;;5048147;28;20056;-85
2021/10/25 14:06:10;;;;;;;1.45;0.60;;;18.00;90.70;;;;;;5051063;28;20022;-84
2021/10/25 14:08:36;;;;;;;3.67;0.40;;;18.20;91.20;;;;;;5050862;28;20021;-87
2021/10/25 14:11:03;;;;;;;1.05;0.43;;;18.50;88.80;;;;;;5055653;28;20495;-87
2021/10/25 14:13:42;;;;;;;2.17;0.57;;;18.70;89.40;;;;;;5048475;28;20227;-92
2021/10/25 14:18:35;;;;;;;1.33;0.30;;;19.00;87.10;;;;;;5069910;28;20496;-87
2021/10/25 14:21:00;;;;;;;1.42;0.43;;;19.20;86.70;;;;;;5045526;28;20040;-84
2021/10/25 14:23:26;;;;;;;2.28;0.50;;;19.40;86.30;;;;;;5049418;28;20021;-84
2021/10/25 14:25:52;;;;;;;1.92;0.75;;;19.60;85.80;;;;;;5051660;28;20823;-84
2021/10/25 14:28:18;;;;;;;2.22;0.70;;;19.40;85.70;;;;;;5061187;28;20485;-84
2021/10/25 14:30:44;;;;;;;2.25;0.77;;;18.90;86.60;;;;;;5048546;28;20021;-85
2021/10/25 14:33:09;;;;;;;2.78;0.50;;;18.60;88.50;;;;;;5069602;28;20021;-85
2021/10/25 14:35:37;;;;;;;2.17;0.70;;;18.20;89.30;;;;;;5072072;28;20028;-85
2021/10/25 14:38:05;;;;;;;0.80;0.43;;;18.00;90.00;;;;;;5052146;28;20489;-84
2021/10/25 14:43:14;;;;;;;6.53;0.60;;;17.30;91.30;;;;;;5082513;28;20021;-85
2021/10/25 14:45:46;;;;;;;0.80;0.40;;;16.90;92.20;;;;;;5073267;28;20484;-85
2021/10/25 14:48:21;;;;;;;1.13;0.57;;;16.30;92.80;;;;;;5072253;28;20017;-86
2021/10/25 14:53:43;;;;;;;1.58;0.50;;;15.50;93.60;;;;;;5070453;28;20060;-85
2021/10/25 14:56:10;;;;;;;1.48;0.50;;;15.10;94.40;;;;;;5048183;28;20033;-85
2021/10/25 14:58:36;;;;;;;1.08;0.52;;;14.80;94.70;;;;;;5065424;28;20099;-84
2021/10/25 15:01:03;;;;;;;2.30;0.50;;;14.60;95.40;;;;;;5054688;28;20071;-85
2021/10/25 15:03:29;;;;;;;1.55;0.45;;;14.40;95.90;;;;;;5065759;28;20456;-85
2021/10/25 15:05:56;;;;;;;5.18;0.52;;;14.30;96.50;;;;;;5063886;28;20048;-84
2021/10/25 15:08:24;;;;;;;3.63;0.70;;;14.10;96.80;;;;;;5070337;28;20082;-84
2021/10/25 15:10:52;;;;;;;1.60;0.50;;;13.90;96.70;;;;;;5071219;28;20021;-85